createdAt,value
2022-10-23T04:30:52.979Z,14.30
2022-10-23T04:33:19.906Z,14.30
2022-10-23T04:35:46.890Z,14.30
2022-10-23T04:38:13.822Z,14.30
2022-10-23T04:40:40.741Z,14.20
2022-10-23T04:43:07.685Z,14.30
2022-10-23T04:45:34.667Z,14.30
2022-10-23T04:48:01.630Z,14.30
2022-10-23T04:50:28.558Z,14.20
2022-10-23T04:52:56.186Z,14.10
2022-10-23T04:55:25.385Z,14.10
2022-10-23T04:57:52.465Z,14.20
2022-10-23T05:00:19.849Z,14.10
2022-10-23T05:02:46.785Z,14.10
2022-10-23T05:05:13.776Z,14.10
2022-10-23T05:07:40.887Z,14.10
2022-10-23T05:10:08.361Z,14.10
2022-10-23T05:12:35.323Z,14.00
2022-10-23T05:15:02.258Z,14.10
2022-10-23T05:17:30.393Z,14.10
2022-10-23T05:19:59.462Z,14.10
2022-10-23T05:22:28.197Z,14.10
2022-10-23T05:24:55.177Z,14.10
2022-10-23T05:27:22.105Z,14.10
2022-10-23T05:29:49.063Z,14.00
2022-10-23T05:32:16.925Z,14.00
2022-10-23T05:34:44.073Z,14.00
2022-10-23T05:37:12.610Z,14.10
2022-10-23T05:39:39.642Z,14.10
2022-10-23T05:42:06.911Z,14.10
2022-10-23T05:44:33.960Z,14.10
2022-10-23T05:47:00.962Z,14.10
2022-10-23T05:49:27.943Z,14.20
2022-10-23T05:51:54.878Z,14.10
2022-10-23T05:54:21.813Z,14.00
2022-10-23T05:56:48.760Z,14.10
2022-10-23T05:59:19.082Z,14.00
2022-10-23T06:01:49.096Z,14.00
2022-10-23T06:04:16.086Z,14.00
2022-10-23T06:06:45.169Z,14.00
2022-10-23T06:09:12.315Z,14.00
2022-10-23T06:11:39.241Z,13.90
2022-10-23T06:14:07.138Z,13.90
2022-10-23T06:16:34.080Z,13.90
2022-10-23T06:19:01.119Z,13.90
2022-10-23T06:21:28.113Z,13.80
2022-10-23T06:23:55.082Z,13.90
2022-10-23T06:26:22.204Z,13.80
2022-10-23T06:28:49.233Z,13.80
2022-10-23T06:31:18.108Z,13.90
2022-10-23T06:33:45.025Z,13.90
2022-10-23T06:36:12.844Z,13.90
2022-10-23T06:38:40.473Z,13.90
2022-10-23T06:41:11.465Z,13.90
2022-10-23T06:43:38.383Z,13.90
2022-10-23T06:46:05.494Z,14.00
2022-10-23T06:48:32.477Z,14.00
2022-10-23T06:50:59.752Z,14.00
2022-10-23T06:53:27.828Z,14.00
2022-10-23T06:55:58.881Z,14.00
2022-10-23T06:58:25.938Z,14.00
2022-10-23T07:00:52.921Z,13.90
2022-10-23T07:03:19.942Z,13.90
2022-10-23T07:05:47.475Z,13.90
2022-10-23T07:08:14.613Z,14.00
2022-10-23T07:10:44.353Z,13.90
2022-10-23T07:13:12.073Z,13.90
2022-10-23T07:15:39.423Z,14.00
2022-10-23T07:18:06.545Z,14.00
2022-10-23T07:20:33.604Z,14.10
2022-10-23T07:23:00.534Z,14.10
2022-10-23T07:25:27.515Z,14.20
2022-10-23T07:27:56.333Z,14.20
2022-10-23T07:30:24.228Z,14.20
2022-10-23T07:32:51.305Z,14.20
2022-10-23T07:35:18.300Z,14.20
2022-10-23T07:37:45.497Z,14.30
2022-10-23T07:40:12.715Z,14.30
2022-10-23T07:42:39.746Z,14.40
2022-10-23T07:45:07.544Z,14.40
2022-10-23T07:47:34.575Z,14.40
2022-10-23T07:50:01.580Z,14.50
2022-10-23T07:52:32.021Z,14.50
2022-10-23T07:55:02.163Z,14.50
2022-10-23T07:57:29.099Z,14.50
2022-10-23T07:59:56.043Z,14.50
2022-10-23T08:02:23.085Z,14.60
2022-10-23T08:04:50.362Z,14.60
2022-10-23T08:07:17.316Z,14.60
2022-10-23T08:09:44.295Z,14.70
2022-10-23T08:12:11.228Z,14.80
2022-10-23T08:14:38.432Z,14.90
2022-10-23T08:17:05.720Z,14.90
2022-10-23T08:19:32.742Z,15.00
2022-10-23T08:21:59.669Z,15.10
2022-10-23T08:24:26.650Z,15.10
2022-10-23T08:26:53.697Z,15.20
2022-10-23T08:29:20.634Z,15.20
2022-10-23T08:31:47.639Z,15.10
2022-10-23T08:34:15.540Z,15.10
2022-10-23T08:36:42.634Z,15.20
2022-10-23T08:39:09.565Z,15.20
2022-10-23T08:41:36.470Z,15.30
2022-10-23T08:44:03.441Z,15.30
2022-10-23T08:46:33.048Z,15.40
2022-10-23T08:49:09.239Z,15.50
2022-10-23T08:51:40.122Z,15.50
2022-10-23T08:54:19.700Z,15.60
2022-10-23T08:56:49.470Z,15.70
2022-10-23T08:59:24.978Z,15.70
2022-10-23T09:02:03.830Z,15.80
2022-10-23T09:04:31.625Z,15.80
2022-10-23T09:07:17.112Z,15.90
2022-10-23T09:09:54.462Z,15.90
2022-10-23T09:12:22.469Z,16.00
2022-10-23T09:14:55.348Z,16.00
2022-10-23T09:17:28.047Z,16.00
2022-10-23T09:20:15.250Z,16.10
2022-10-23T09:22:42.422Z,16.10
2022-10-23T09:25:11.142Z,16.10
2022-10-23T09:27:38.201Z,16.20
2022-10-23T09:30:05.507Z,16.30
2022-10-23T09:32:36.190Z,16.30
2022-10-23T09:35:04.205Z,16.30
2022-10-23T09:37:32.721Z,16.30
2022-10-23T09:40:11.753Z,16.40
2022-10-23T09:42:38.949Z,16.40
2022-10-23T09:45:20.690Z,16.50
2022-10-23T09:47:47.618Z,16.50
2022-10-23T09:50:20.260Z,16.50
2022-10-23T09:52:50.257Z,16.60
2022-10-23T09:55:21.481Z,16.60
2022-10-23T09:57:49.278Z,16.70
2022-10-23T10:00:18.277Z,16.70
2022-10-23T10:03:01.552Z,16.80
2022-10-23T10:05:35.872Z,16.80
2022-10-23T10:08:11.765Z,16.90
2022-10-23T10:10:41.690Z,17.00
2022-10-23T10:13:36.570Z,17.00
2022-10-23T10:16:06.969Z,17.00
2022-10-23T10:18:39.625Z,17.10
2022-10-23T10:21:09.356Z,17.10
2022-10-23T10:23:55.820Z,17.20
2022-10-23T10:26:25.621Z,17.20
2022-10-23T10:29:04.544Z,17.20
2022-10-23T10:31:43.227Z,17.30
2022-10-23T10:34:25.290Z,17.30
2022-10-23T10:37:01.254Z,17.30
2022-10-23T10:39:46.777Z,17.30
2022-10-23T10:42:22.569Z,17.40
2022-10-23T10:44:52.317Z,17.40
2022-10-23T10:47:26.207Z,17.50
2022-10-23T10:49:57.761Z,17.50
2022-10-23T10:52:36.565Z,17.60
2022-10-23T10:55:15.642Z,17.60
2022-10-23T10:57:45.886Z,17.70
2022-10-23T11:00:13.370Z,17.80
2022-10-23T11:02:43.975Z,17.80
2022-10-23T11:05:25.232Z,17.80
2022-10-23T11:07:56.913Z,17.90
2022-10-23T11:10:23.996Z,17.90
2022-10-23T11:12:51.377Z,18.00
2022-10-23T11:15:20.949Z,18.00
2022-10-23T11:17:49.675Z,18.10
2022-10-23T11:20:24.148Z,18.10
2022-10-23T11:22:59.552Z,18.10
2022-10-23T11:25:47.214Z,18.20
2022-10-23T11:28:32.274Z,18.20
2022-10-23T11:31:09.537Z,18.30
2022-10-23T11:33:40.322Z,18.30
2022-10-23T11:36:15.523Z,18.30
2022-10-23T11:38:44.174Z,18.40
2022-10-23T11:41:25.463Z,18.40
2022-10-23T11:44:01.569Z,18.50
2022-10-23T11:46:38.401Z,18.50
2022-10-23T11:49:06.585Z,18.40
2022-10-23T11:51:40.640Z,18.50
2022-10-23T11:54:10.311Z,18.50
2022-10-23T11:56:38.246Z,18.50
2022-10-23T11:59:21.377Z,18.60
2022-10-23T12:01:49.280Z,18.60
2022-10-23T12:04:24.186Z,18.60
2022-10-23T12:06:53.310Z,18.60
2022-10-23T12:09:23.114Z,18.70
2022-10-23T12:12:01.508Z,18.70
2022-10-23T12:14:33.537Z,18.70
2022-10-23T12:17:00.629Z,18.80
2022-10-23T12:19:45.769Z,18.80
2022-10-23T12:22:13.225Z,18.80
2022-10-23T12:24:40.150Z,18.80
2022-10-23T12:27:28.794Z,18.90
2022-10-23T12:30:12.257Z,18.90
2022-10-23T12:33:03.524Z,18.90
2022-10-23T12:35:36.661Z,18.90
2022-10-23T12:38:09.665Z,19.00
2022-10-23T12:40:36.657Z,19.00
2022-10-23T12:43:03.597Z,19.00
2022-10-23T12:45:32.420Z,19.00
2022-10-23T12:47:59.421Z,19.00
2022-10-23T12:50:30.826Z,19.10
2022-10-23T12:53:01.865Z,19.10
2022-10-23T12:55:46.208Z,19.10
2022-10-23T12:58:32.353Z,19.10
2022-10-23T13:01:00.940Z,19.10
2022-10-23T13:03:28.937Z,19.30
2022-10-23T13:05:58.699Z,19.20
2022-10-23T13:08:29.345Z,19.20
2022-10-23T13:10:56.334Z,19.20
2022-10-23T13:13:23.873Z,19.20
2022-10-23T13:15:51.264Z,19.20
2022-10-23T13:18:18.453Z,19.20
2022-10-23T13:20:51.224Z,19.30
2022-10-23T13:23:18.552Z,19.30
2022-10-23T13:26:05.022Z,19.30
2022-10-23T13:28:41.700Z,19.30
2022-10-23T13:31:12.277Z,19.20
2022-10-23T13:33:39.261Z,19.20
2022-10-23T13:36:09.066Z,19.30
2022-10-23T13:38:37.741Z,19.30
2022-10-23T13:41:05.559Z,19.30
2022-10-23T13:43:32.962Z,19.30
2022-10-23T13:46:00.224Z,19.30
2022-10-23T13:48:27.577Z,19.30
2022-10-23T13:50:58.269Z,19.30
2022-10-23T13:53:25.198Z,19.30
2022-10-23T13:55:56.230Z,19.30
2022-10-23T13:58:25.542Z,19.30
2022-10-23T14:00:52.622Z,19.30
2022-10-23T14:03:24.160Z,19.30
2022-10-23T14:05:51.617Z,19.30
2022-10-23T14:08:18.832Z,19.30
2022-10-23T14:10:46.129Z,19.30
2022-10-23T14:13:13.212Z,19.30
2022-10-23T14:15:40.305Z,19.30
2022-10-23T14:18:08.386Z,19.30
2022-10-23T14:20:37.810Z,19.30
2022-10-23T14:23:04.846Z,19.30
2022-10-23T14:25:31.794Z,19.40
2022-10-23T14:27:58.722Z,19.40
2022-10-23T14:30:25.704Z,19.40
2022-10-23T14:32:52.635Z,19.40
2022-10-23T14:35:19.717Z,19.40
2022-10-23T14:37:46.898Z,19.40
2022-10-23T14:40:14.061Z,19.40
2022-10-23T14:42:41.099Z,19.50
2022-10-23T14:45:08.266Z,19.50
2022-10-23T14:47:35.414Z,19.40
2022-10-23T14:50:02.502Z,19.50
2022-10-23T14:52:29.480Z,19.50
2022-10-23T14:54:56.436Z,19.50
2022-10-23T14:57:23.557Z,19.50
2022-10-23T14:59:50.478Z,19.50
2022-10-23T15:02:17.618Z,19.50
2022-10-23T15:04:44.759Z,19.50
2022-10-23T15:07:11.793Z,19.50
2022-10-23T15:09:39.619Z,19.50
2022-10-23T15:12:07.210Z,19.50
2022-10-23T15:14:34.422Z,19.50
2022-10-23T15:17:01.954Z,19.50
2022-10-23T15:19:28.901Z,19.50
2022-10-23T15:21:56.001Z,19.50
2022-10-23T15:24:22.973Z,19.50
2022-10-23T15:26:51.563Z,19.50
2022-10-23T15:29:19.147Z,19.50
2022-10-23T15:32:05.141Z,19.40
2022-10-23T15:34:34.870Z,19.20
2022-10-23T15:37:01.817Z,19.30
2022-10-23T15:39:33.554Z,19.30
2022-10-23T15:42:00.494Z,19.30
2022-10-23T15:44:28.546Z,19.30
2022-10-23T15:46:57.024Z,19.30
2022-10-23T15:49:24.806Z,19.30
2022-10-23T15:51:52.489Z,19.30
2022-10-23T15:54:19.817Z,19.30
2022-10-23T15:56:47.439Z,19.30
2022-10-23T15:59:14.627Z,19.30
2022-10-23T16:01:41.862Z,19.30
2022-10-23T16:04:08.863Z,19.20
2022-10-23T16:06:35.883Z,19.20
2022-10-23T16:09:02.887Z,19.20
2022-10-23T16:11:31.373Z,19.20
2022-10-23T16:13:58.890Z,19.20
2022-10-23T16:16:27.132Z,19.10
2022-10-23T16:18:54.136Z,19.10
2022-10-23T16:21:25.837Z,19.00
2022-10-23T16:23:53.950Z,19.00
2022-10-23T16:26:21.152Z,18.90
2022-10-23T16:28:48.194Z,18.90
2022-10-23T16:31:19.363Z,18.90
2022-10-23T16:33:47.957Z,18.90
2022-10-23T16:36:15.334Z,18.90
2022-10-23T16:38:42.345Z,18.90
2022-10-23T16:41:09.314Z,18.90
2022-10-23T16:43:36.278Z,18.90
2022-10-23T16:46:16.985Z,18.90
2022-10-23T16:48:44.169Z,18.90
2022-10-23T16:51:15.784Z,18.90
2022-10-23T16:53:43.497Z,18.90
2022-10-23T16:56:11.430Z,18.80
2022-10-23T16:58:40.864Z,18.80
2022-10-23T17:01:11.848Z,18.80
2022-10-23T17:03:40.462Z,18.80
2022-10-23T17:06:11.066Z,18.80
2022-10-23T17:08:38.921Z,18.90
2022-10-23T17:11:05.837Z,18.90
2022-10-23T17:13:33.472Z,18.90
2022-10-23T17:16:04.111Z,18.90
2022-10-23T17:18:31.197Z,18.90
2022-10-23T17:20:59.616Z,18.90
2022-10-23T17:23:27.212Z,18.80
2022-10-23T17:25:54.599Z,18.70
2022-10-23T17:28:22.011Z,18.70
2022-10-23T17:30:49.126Z,18.70
2022-10-23T17:33:16.350Z,18.70
2022-10-23T17:35:45.170Z,18.70
2022-10-23T17:38:12.722Z,18.70
2022-10-23T17:40:39.896Z,18.80
2022-10-23T17:43:06.878Z,18.80
2022-10-23T17:45:34.961Z,18.70
2022-10-23T17:48:01.997Z,18.70
2022-10-23T17:50:28.982Z,18.70
2022-10-23T17:52:55.969Z,18.70
2022-10-23T17:55:22.913Z,18.70
2022-10-23T17:57:50.103Z,18.60
2022-10-23T18:00:17.109Z,18.60
2022-10-23T18:02:44.021Z,18.60
2022-10-23T18:05:11.265Z,18.60
2022-10-23T18:07:38.242Z,18.60
2022-10-23T18:10:05.363Z,18.60
2022-10-23T18:12:32.280Z,18.60
2022-10-23T18:15:00.842Z,18.50
2022-10-23T18:17:27.774Z,18.40
2022-10-23T18:19:58.364Z,18.30
2022-10-23T18:22:30.205Z,18.30
2022-10-23T18:24:57.285Z,18.20
2022-10-23T18:27:24.205Z,18.30
2022-10-23T18:29:51.938Z,18.40
2022-10-23T18:32:18.925Z,18.40
2022-10-23T18:34:45.912Z,18.50
2022-10-23T18:37:12.845Z,18.50
2022-10-23T18:39:39.845Z,18.60
2022-10-23T18:42:06.793Z,18.60
2022-10-23T18:44:33.826Z,18.60
2022-10-23T18:47:00.979Z,18.60
2022-10-23T18:49:28.020Z,18.60
2022-10-23T18:51:55.194Z,18.60
2022-10-23T18:54:22.231Z,18.60
2022-10-23T18:56:49.550Z,18.70
2022-10-23T18:59:18.080Z,18.60
2022-10-23T19:01:45.293Z,18.60
2022-10-23T19:04:14.041Z,18.60
2022-10-23T19:06:41.421Z,18.60
2022-10-23T19:09:09.086Z,18.60
2022-10-23T19:11:36.890Z,18.60
2022-10-23T19:14:04.489Z,18.60
2022-10-23T19:16:37.338Z,18.60
2022-10-23T19:19:06.921Z,18.60
2022-10-23T19:21:36.750Z,18.60
2022-10-23T19:24:07.209Z,18.60
2022-10-23T19:26:35.552Z,18.50
2022-10-23T19:29:03.058Z,18.60
2022-10-23T19:31:30.337Z,18.50
2022-10-23T19:33:57.261Z,18.50
2022-10-23T19:36:24.194Z,18.60
2022-10-23T19:38:51.215Z,18.60
2022-10-23T19:41:18.836Z,18.50
2022-10-23T19:43:45.785Z,18.50
2022-10-23T19:46:13.110Z,18.40
2022-10-23T19:48:44.189Z,18.40
2022-10-23T19:51:12.880Z,18.40
2022-10-23T19:53:41.231Z,18.40
2022-10-23T19:56:09.818Z,18.40
2022-10-23T19:58:37.159Z,18.40
2022-10-23T20:01:14.442Z,18.40
2022-10-23T20:03:41.861Z,18.40
2022-10-23T20:06:15.802Z,18.50
2022-10-23T20:08:42.983Z,18.50
2022-10-23T20:11:17.828Z,18.40
2022-10-23T20:13:47.878Z,18.40
2022-10-23T20:16:18.658Z,18.50
2022-10-23T20:18:45.686Z,18.40
2022-10-23T20:21:12.734Z,18.30
2022-10-23T20:23:39.817Z,18.30
2022-10-23T20:26:07.909Z,18.30
2022-10-23T20:28:35.034Z,18.30
2022-10-23T20:31:05.846Z,18.30
2022-10-23T20:33:32.811Z,18.40
2022-10-23T20:35:59.777Z,18.40
2022-10-23T20:38:26.850Z,18.40
2022-10-23T20:40:55.943Z,18.50
2022-10-23T20:43:22.924Z,18.50
2022-10-23T20:45:49.875Z,18.50
2022-10-23T20:48:16.850Z,18.40
2022-10-23T20:50:43.781Z,18.40
2022-10-23T20:53:10.735Z,18.30
2022-10-23T20:55:41.378Z,18.30
2022-10-23T20:58:08.415Z,18.20
2022-10-23T21:00:35.383Z,18.30
2022-10-23T21:03:04.024Z,18.20
2022-10-23T21:05:31.049Z,18.20
2022-10-23T21:07:58.010Z,18.20
2022-10-23T21:10:24.934Z,18.20
2022-10-23T21:12:51.989Z,18.20
2022-10-23T21:15:18.987Z,18.20
2022-10-23T21:17:48.943Z,18.30
2022-10-23T21:20:17.133Z,18.20
2022-10-23T21:22:44.271Z,18.10
2022-10-23T21:25:11.449Z,18.20
2022-10-23T21:27:38.435Z,18.30
2022-10-23T21:30:06.252Z,18.40
2022-10-23T21:32:33.189Z,18.40
2022-10-23T21:35:00.107Z,18.40
2022-10-23T21:37:27.042Z,18.40
2022-10-23T21:39:54.004Z,18.40
2022-10-23T21:42:21.035Z,18.30
2022-10-23T21:44:48.033Z,18.30
2022-10-23T21:47:15.008Z,18.30
2022-10-23T21:49:42.161Z,18.30
2022-10-23T21:52:09.085Z,18.30
2022-10-23T21:54:36.176Z,18.20
2022-10-23T21:57:03.456Z,18.10
2022-10-23T21:59:33.163Z,18.10
2022-10-23T22:02:01.947Z,18.10
2022-10-23T22:04:28.983Z,18.10
2022-10-23T22:06:55.998Z,18.10
2022-10-23T22:09:23.037Z,18.20
2022-10-23T22:11:50.750Z,18.20
2022-10-23T22:14:17.785Z,18.20
2022-10-23T22:16:44.751Z,18.20
2022-10-23T22:19:12.686Z,18.20
2022-10-23T22:21:39.816Z,18.20
2022-10-23T22:24:07.386Z,18.20
2022-10-23T22:26:39.317Z,18.20
2022-10-23T22:29:07.605Z,18.20
2022-10-23T22:31:35.114Z,18.20
2022-10-23T22:34:13.201Z,18.20
2022-10-23T22:36:50.193Z,18.20
2022-10-23T22:39:17.230Z,18.20
2022-10-23T22:41:44.207Z,18.20
2022-10-23T22:44:11.625Z,18.20
2022-10-23T22:46:38.580Z,18.10
2022-10-23T22:51:32.850Z,18.10
2022-10-23T22:54:00.246Z,18.10
2022-10-23T22:56:28.470Z,18.10
2022-10-23T22:58:55.823Z,18.10
